createdAt,value
2023-03-26T00:00:00.746Z,99708.72
2023-03-26T00:02:30.360Z,99704.66
2023-03-26T00:04:59.327Z,99696.13
2023-03-26T00:07:28.651Z,99684.19
2023-03-26T00:09:58.873Z,99685.09
2023-03-26T00:12:27.630Z,99694.69
2023-03-26T00:14:57.005Z,99713.56
2023-03-26T00:17:25.552Z,99674.94
2023-03-26T00:19:54.453Z,99626.38
2023-03-26T00:22:24.436Z,99707.78
2023-03-26T00:24:53.070Z,99670.09
2023-03-26T00:27:24.726Z,99716.50
2023-03-26T00:29:57.046Z,99700.31
2023-03-26T00:32:28.778Z,99714.22
2023-03-26T00:34:58.579Z,99721.97
2023-03-26T00:37:27.855Z,99691.03
2023-03-26T00:40:05.378Z,99700.63
2023-03-26T00:42:34.912Z,99669.84
2023-03-26T00:45:03.535Z,99683.47
2023-03-26T00:47:32.455Z,99707.69
2023-03-26T00:50:01.292Z,99650.44
2023-03-26T00:52:30.613Z,99721.59
2023-03-26T00:54:59.209Z,99714.84
2023-03-26T00:57:35.829Z,99700.16
2023-03-26T01:00:10.798Z,99699.41
2023-03-26T01:02:40.027Z,99721.84
2023-03-26T01:05:36.607Z,99721.84
2023-03-26T01:08:32.670Z,99722.91
2023-03-26T01:11:08.082Z,99692.72
2023-03-26T01:13:39.415Z,99719.41
2023-03-26T01:16:21.176Z,99719.25
2023-03-26T01:18:50.048Z,99690.00
2023-03-26T01:21:23.579Z,99718.34
2023-03-26T01:24:02.592Z,99680.50
2023-03-26T01:27:10.391Z,99727.00
2023-03-26T01:30:21.015Z,99721.03
2023-03-26T01:33:05.771Z,99717.34
2023-03-26T01:35:35.012Z,99725.03
2023-03-26T01:38:26.293Z,99709.44
2023-03-26T01:41:21.461Z,99716.97
2023-03-26T01:44:01.610Z,99728.09
2023-03-26T01:46:36.825Z,99695.22
2023-03-26T01:49:07.201Z,99718.16
2023-03-26T01:51:37.179Z,99684.41
2023-03-26T01:54:08.891Z,99685.06
2023-03-26T01:56:48.000Z,99711.38
2023-03-26T01:59:30.694Z,99626.66
2023-03-26T02:02:00.840Z,99709.00
2023-03-26T02:04:48.859Z,99701.09
2023-03-26T02:07:26.253Z,99676.00
2023-03-26T02:10:02.758Z,99671.63
2023-03-26T02:12:31.753Z,99680.53
2023-03-26T02:15:02.656Z,99688.13
2023-03-26T02:17:33.398Z,99671.91
2023-03-26T02:20:11.358Z,99680.03
2023-03-26T02:22:46.658Z,99671.50
2023-03-26T02:25:20.508Z,99687.25
2023-03-26T02:27:52.701Z,99678.66
2023-03-26T02:30:26.486Z,99674.38
2023-03-26T02:33:00.015Z,99679.13
2023-03-26T02:35:36.650Z,99670.34
2023-03-26T02:38:05.577Z,99659.00
2023-03-26T02:40:34.532Z,99668.81
2023-03-26T02:43:03.846Z,99674.69
2023-03-26T02:45:33.809Z,99686.84
2023-03-26T02:48:08.832Z,99689.59
2023-03-26T02:50:55.275Z,99666.88
2023-03-26T02:53:38.266Z,99666.81
2023-03-26T02:56:21.156Z,99617.81
2023-03-26T02:59:06.097Z,99669.97
2023-03-26T03:01:37.789Z,99661.81
2023-03-26T03:04:09.066Z,99688.66
2023-03-26T03:06:39.048Z,99687.09
2023-03-26T03:09:12.265Z,99673.97
2023-03-26T03:12:00.890Z,99627.03
2023-03-26T03:14:29.657Z,99673.72
2023-03-26T03:16:58.647Z,99697.06
2023-03-26T03:19:27.776Z,99629.00
2023-03-26T03:21:58.518Z,99613.47
2023-03-26T03:24:28.166Z,99700.50
2023-03-26T03:26:58.840Z,99693.56
2023-03-26T03:29:42.152Z,99639.72
2023-03-26T03:32:43.205Z,99685.03
2023-03-26T03:35:12.159Z,99708.22
2023-03-26T03:37:42.786Z,99706.66
2023-03-26T03:40:12.243Z,99692.19
2023-03-26T03:42:41.650Z,99693.41
2023-03-26T03:45:12.320Z,99693.66
2023-03-26T03:48:08.379Z,99689.47
2023-03-26T03:50:41.493Z,99687.31
2023-03-26T03:53:26.738Z,99689.56
2023-03-26T03:55:58.434Z,99701.00
2023-03-26T03:58:42.549Z,99693.81
2023-03-26T04:01:17.628Z,99687.91
2023-03-26T04:04:03.154Z,99684.34
2023-03-26T04:06:49.950Z,99687.84
2023-03-26T04:09:18.647Z,99692.19
2023-03-26T04:11:51.586Z,99703.84
2023-03-26T04:14:36.625Z,99693.72
2023-03-26T04:17:16.897Z,99695.34
2023-03-26T04:19:48.064Z,99637.72
2023-03-26T04:22:19.309Z,99713.31
2023-03-26T04:24:56.428Z,99704.97
2023-03-26T04:27:33.265Z,99693.31
2023-03-26T04:30:25.787Z,99696.63
2023-03-26T04:33:07.003Z,99717.56
2023-03-26T04:35:42.392Z,99701.41
2023-03-26T04:38:13.063Z,99698.31
2023-03-26T04:40:48.372Z,99699.59
2023-03-26T04:43:19.686Z,99700.28
2023-03-26T04:45:55.181Z,99698.84
2023-03-26T04:48:27.212Z,99682.41
2023-03-26T04:50:55.934Z,99704.38
2023-03-26T04:53:25.583Z,99689.97
2023-03-26T04:56:28.930Z,99699.09
2023-03-26T04:59:31.291Z,99708.72
2023-03-26T05:02:00.884Z,99689.91
2023-03-26T05:04:37.420Z,99669.97
2023-03-26T05:07:06.204Z,99692.63
2023-03-26T05:09:41.829Z,99712.28
2023-03-26T05:12:17.183Z,99677.38
2023-03-26T05:14:53.681Z,99690.66
2023-03-26T05:17:35.556Z,99677.34
2023-03-26T05:20:06.130Z,99721.44
2023-03-26T05:22:36.623Z,99704.00
2023-03-26T05:25:18.172Z,99720.34
2023-03-26T05:27:47.472Z,99706.19
2023-03-26T05:30:20.444Z,99696.78
2023-03-26T05:32:56.125Z,99694.97
2023-03-26T05:35:29.826Z,99689.63
2023-03-26T05:37:58.883Z,99689.25
2023-03-26T05:40:27.832Z,99681.13
2023-03-26T05:43:01.985Z,99633.03
2023-03-26T05:45:44.038Z,99684.72
2023-03-26T05:48:27.893Z,99674.31
2023-03-26T05:50:58.747Z,99693.28
2023-03-26T05:53:30.516Z,99698.38
2023-03-26T05:56:17.556Z,99717.94
2023-03-26T05:58:50.085Z,99712.81
2023-03-26T06:01:45.638Z,99689.75
2023-03-26T06:04:16.676Z,99701.28
2023-03-26T06:07:05.907Z,99712.78
2023-03-26T06:09:35.037Z,99724.13
2023-03-26T06:12:03.786Z,99688.44
2023-03-26T06:14:33.225Z,99704.97
2023-03-26T06:17:18.984Z,99683.50
2023-03-26T06:20:09.431Z,99641.31
2023-03-26T06:22:41.930Z,99678.97
2023-03-26T06:25:37.526Z,99669.03
2023-03-26T06:28:10.654Z,99670.09
2023-03-26T06:31:02.141Z,99695.13
2023-03-26T06:33:51.235Z,99685.13
2023-03-26T06:36:20.487Z,99669.31
2023-03-26T06:38:51.395Z,99688.63
2023-03-26T06:41:20.224Z,99676.44
2023-03-26T06:44:07.194Z,99662.94
2023-03-26T06:46:54.541Z,99663.09
2023-03-26T06:49:45.312Z,99648.00
2023-03-26T06:52:34.313Z,99637.78
2023-03-26T06:55:26.306Z,99669.88
2023-03-26T06:58:14.640Z,99654.19
2023-03-26T07:00:46.318Z,99675.63
2023-03-26T07:03:33.590Z,99653.63
2023-03-26T07:06:21.024Z,99643.59
2023-03-26T07:09:08.045Z,99586.41
2023-03-26T07:12:02.487Z,99659.56
2023-03-26T07:15:04.961Z,99646.19
2023-03-26T07:17:52.274Z,99587.50
2023-03-26T07:20:27.309Z,99662.91
2023-03-26T07:22:59.442Z,99659.19
2023-03-26T07:25:44.890Z,99626.00
2023-03-26T07:28:28.146Z,99662.31
2023-03-26T07:31:38.329Z,99633.66
2023-03-26T07:35:08.135Z,99653.56
2023-03-26T07:38:23.744Z,99656.69
2023-03-26T07:41:09.997Z,99664.88
2023-03-26T07:44:28.554Z,99668.56
2023-03-26T07:47:34.575Z,99668.28
2023-03-26T07:50:25.378Z,99647.44
2023-03-26T07:53:32.723Z,99667.34
2023-03-26T07:56:34.592Z,99608.22
2023-03-26T07:59:25.352Z,99674.78
2023-03-26T08:02:37.660Z,99668.16
2023-03-26T08:05:33.889Z,99662.19
2023-03-26T08:08:39.907Z,99662.38
2023-03-26T08:11:46.903Z,99654.84
2023-03-26T08:14:40.241Z,99632.91
2023-03-26T08:17:21.442Z,99630.41
2023-03-26T08:20:19.869Z,99636.97
2023-03-26T08:22:58.157Z,99645.66
2023-03-26T08:25:37.420Z,99646.72
2023-03-26T08:28:18.542Z,99645.75
2023-03-26T08:30:47.852Z,99621.34
2023-03-26T08:33:19.980Z,99580.66
2023-03-26T08:35:50.101Z,99635.97
2023-03-26T08:38:20.909Z,99639.56
2023-03-26T08:41:11.250Z,99646.19
2023-03-26T08:44:01.340Z,99639.81
2023-03-26T08:46:58.821Z,99635.28
2023-03-26T08:49:41.010Z,99637.06
2023-03-26T08:52:12.567Z,99642.22
2023-03-26T08:55:10.120Z,99632.88
2023-03-26T08:57:48.411Z,99633.38
2023-03-26T09:00:54.787Z,99637.16
2023-03-26T09:03:42.215Z,99649.28
2023-03-26T09:06:31.840Z,99641.81
2023-03-26T09:09:37.543Z,99649.09
2023-03-26T09:12:37.360Z,99624.91
2023-03-26T09:15:43.422Z,99644.84
2023-03-26T09:18:20.730Z,99647.78
2023-03-26T09:21:02.014Z,99647.38
2023-03-26T09:24:04.862Z,99651.63
2023-03-26T09:27:25.583Z,99654.53
2023-03-26T09:29:57.607Z,99647.22
2023-03-26T09:32:44.828Z,99651.78
2023-03-26T09:35:46.823Z,99554.53
2023-03-26T09:38:45.424Z,99644.88
2023-03-26T09:42:00.514Z,99624.53
2023-03-26T09:44:57.507Z,99629.50
2023-03-26T09:47:31.933Z,99641.72
2023-03-26T09:50:16.836Z,99620.50
2023-03-26T09:53:01.201Z,99613.94
2023-03-26T09:55:59.928Z,99626.91
2023-03-26T09:58:49.821Z,99624.94
2023-03-26T10:01:45.078Z,99635.31
2023-03-26T10:04:34.051Z,99640.69
2023-03-26T10:07:40.107Z,99637.03
2023-03-26T10:10:32.104Z,99644.88
2023-03-26T10:13:18.376Z,99630.41
2023-03-26T10:16:27.637Z,99649.28
2023-03-26T10:19:34.764Z,99644.66
2023-03-26T10:22:18.691Z,99632.13
2023-03-26T10:24:57.468Z,99587.25
2023-03-26T10:27:47.675Z,99645.47
2023-03-26T10:30:16.656Z,99659.59
2023-03-26T10:33:32.746Z,99671.25
2023-03-26T10:36:29.227Z,99666.13
2023-03-26T10:39:01.520Z,99674.38
2023-03-26T10:41:55.519Z,99681.50
2023-03-26T10:44:58.948Z,99678.34
2023-03-26T10:48:09.073Z,99680.50
2023-03-26T10:50:51.808Z,99665.31
2023-03-26T10:53:26.238Z,99687.84
2023-03-26T10:56:16.331Z,99637.00
2023-03-26T10:58:49.088Z,99623.88
2023-03-26T11:01:31.346Z,99690.63
2023-03-26T11:04:26.569Z,99675.63
2023-03-26T11:07:20.322Z,99683.75
2023-03-26T11:10:01.785Z,99697.84
2023-03-26T11:12:34.091Z,99677.81
2023-03-26T11:15:11.436Z,99697.16
2023-03-26T11:17:50.216Z,99692.88
2023-03-26T11:20:35.709Z,99675.13
2023-03-26T11:23:35.894Z,99681.25
2023-03-26T11:26:11.757Z,99666.16
2023-03-26T11:29:03.911Z,99684.06
2023-03-26T11:32:06.141Z,99682.66
2023-03-26T11:35:02.686Z,99677.34
2023-03-26T11:37:47.551Z,99613.56
2023-03-26T11:40:28.984Z,99656.41
2023-03-26T11:43:03.068Z,99677.97
2023-03-26T11:45:39.595Z,99660.03
2023-03-26T11:48:14.271Z,99684.84
2023-03-26T11:50:56.550Z,99655.19
2023-03-26T11:53:30.760Z,99669.84
2023-03-26T11:56:04.871Z,99671.94
2023-03-26T11:59:02.044Z,99644.13
2023-03-26T12:01:45.442Z,99686.13
2023-03-26T12:04:16.433Z,99663.28
2023-03-26T12:06:58.450Z,99675.72
2023-03-26T12:09:27.779Z,99669.94
2023-03-26T12:12:02.949Z,99695.16
2023-03-26T12:14:38.201Z,99683.97
2023-03-26T12:17:31.133Z,99609.19
2023-03-26T12:20:03.152Z,99657.00
2023-03-26T12:22:39.591Z,99694.94
2023-03-26T12:25:19.789Z,99698.00
2023-03-26T12:27:56.539Z,99692.13
2023-03-26T12:30:31.968Z,99672.53
2023-03-26T12:33:19.048Z,99672.91
2023-03-26T12:35:48.125Z,99668.91
2023-03-26T12:38:25.529Z,99691.28
2023-03-26T12:44:43.637Z,99665.78
2023-03-26T12:44:53.355Z,99702.25
2023-03-26T12:47:55.222Z,99692.81
2023-03-26T12:50:16.567Z,99665.72
2023-03-26T12:52:56.384Z,99688.03
2023-03-26T12:55:52.750Z,99680.53
2023-03-26T12:58:51.927Z,99691.38
2023-03-26T13:01:44.278Z,99677.03
2023-03-26T13:04:20.395Z,99695.44
2023-03-26T13:07:00.850Z,99692.25
2023-03-26T13:09:58.636Z,99666.22
2023-03-26T13:13:05.745Z,99614.56
2023-03-26T13:15:44.328Z,99698.56
2023-03-26T13:18:34.048Z,99695.38
2023-03-26T13:21:02.763Z,99700.06
2023-03-26T13:24:00.383Z,99717.56
2023-03-26T13:26:59.471Z,99713.53
2023-03-26T13:30:05.436Z,99719.13
2023-03-26T13:32:43.184Z,99702.38
2023-03-26T13:35:25.219Z,99727.28
2023-03-26T13:38:11.983Z,99726.63
2023-03-26T13:41:01.985Z,99731.22
2023-03-26T13:43:38.400Z,99614.13
2023-03-26T13:46:34.113Z,99705.84
2023-03-26T13:49:20.557Z,99708.47
2023-03-26T13:52:03.938Z,99725.06
2023-03-26T13:54:40.930Z,99743.25
2023-03-26T13:57:26.890Z,99750.31
2023-03-26T14:00:19.062Z,99671.91
2023-03-26T14:02:55.759Z,99735.31
2023-03-26T14:05:57.900Z,99755.22
2023-03-26T14:08:30.674Z,99733.00
2023-03-26T14:11:12.260Z,99729.63
2023-03-26T14:13:58.997Z,99750.19
2023-03-26T14:16:40.675Z,99738.25
2023-03-26T14:19:43.198Z,99741.75
2023-03-26T14:22:25.084Z,99702.34
2023-03-26T14:25:25.555Z,99739.34
2023-03-26T14:28:15.837Z,99750.75
2023-03-26T14:30:48.984Z,99743.91
2023-03-26T14:33:49.690Z,99740.50
2023-03-26T14:36:40.819Z,99763.28
2023-03-26T14:39:40.494Z,99744.28
2023-03-26T14:42:24.695Z,99745.38
2023-03-26T14:45:28.389Z,99755.00
2023-03-26T14:48:40.454Z,99751.59
2023-03-26T14:51:38.707Z,99760.25
2023-03-26T14:54:14.206Z,99748.31
2023-03-26T14:57:04.221Z,99755.09
2023-03-26T14:59:38.746Z,99755.19
2023-03-26T15:02:25.999Z,99753.53
2023-03-26T15:05:26.794Z,99746.59
2023-03-26T15:08:36.898Z,99718.47
2023-03-26T15:11:42.968Z,99742.50
2023-03-26T15:14:38.864Z,99738.22
2023-03-26T15:17:25.924Z,99741.75
2023-03-26T15:20:42.490Z,99730.63
2023-03-26T15:23:29.138Z,99734.25
2023-03-26T15:26:19.580Z,99737.66
2023-03-26T15:29:25.637Z,99743.88
2023-03-26T15:31:57.108Z,99750.13
2023-03-26T15:34:43.833Z,99741.56
2023-03-26T15:37:47.197Z,99738.78
2023-03-26T15:40:43.993Z,99719.19
2023-03-26T15:43:20.692Z,99744.41
2023-03-26T15:46:15.277Z,99763.22
2023-03-26T15:49:07.913Z,99743.22
2023-03-26T15:52:07.292Z,99745.00
2023-03-26T15:55:13.273Z,99744.13
2023-03-26T15:57:49.527Z,99743.50
2023-03-26T16:00:35.473Z,99747.72
2023-03-26T16:03:21.012Z,99746.88
2023-03-26T16:06:11.793Z,99748.63
2023-03-26T16:09:10.591Z,99734.03
2023-03-26T16:11:57.500Z,99743.50
2023-03-26T16:14:44.833Z,99684.47
2023-03-26T16:17:19.289Z,99743.50
2023-03-26T16:19:53.230Z,99751.34
2023-03-26T16:22:55.764Z,99748.78
2023-03-26T16:25:35.999Z,99746.19
2023-03-26T16:28:31.471Z,99715.28
2023-03-26T16:31:23.300Z,99738.34
2023-03-26T16:34:11.433Z,99744.47
2023-03-26T16:36:50.551Z,99657.84
2023-03-26T16:39:41.688Z,99724.47
2023-03-26T16:42:16.521Z,99725.38
2023-03-26T16:44:50.430Z,99729.94
2023-03-26T16:47:49.786Z,99724.00
2023-03-26T16:50:33.707Z,99728.13
2023-03-26T16:53:23.898Z,99727.16
2023-03-26T16:56:04.297Z,99644.09
2023-03-26T16:58:41.744Z,99724.50
2023-03-26T17:01:16.570Z,99720.06
2023-03-26T17:04:02.623Z,99721.00
2023-03-26T17:06:37.868Z,99689.88
2023-03-26T17:09:32.838Z,99704.41
2023-03-26T17:12:43.684Z,99715.38
2023-03-26T17:15:20.960Z,99726.50
2023-03-26T17:18:20.361Z,99730.69
2023-03-26T17:21:01.850Z,99738.31
2023-03-26T17:23:56.574Z,99731.28
2023-03-26T17:27:05.317Z,99732.84
2023-03-26T17:29:49.660Z,99720.53
2023-03-26T17:32:18.628Z,99689.56
2023-03-26T17:34:52.731Z,99730.59
2023-03-26T17:37:24.413Z,99720.97
2023-03-26T17:40:13.018Z,99733.88
2023-03-26T17:43:06.461Z,99704.53
2023-03-26T17:45:38.318Z,99712.16
2023-03-26T17:48:18.135Z,99647.88
2023-03-26T17:50:58.727Z,99728.22
2023-03-26T17:53:33.349Z,99729.94
2023-03-26T17:56:08.715Z,99720.47
2023-03-26T17:58:43.497Z,99694.66
2023-03-26T18:01:36.839Z,99722.03
2023-03-26T18:04:12.558Z,99730.72
2023-03-26T18:07:16.152Z,99729.72
2023-03-26T18:09:53.798Z,99648.28
2023-03-26T18:12:50.534Z,99715.03
2023-03-26T18:15:39.201Z,99725.97
2023-03-26T18:18:32.433Z,99739.78
2023-03-26T18:21:05.626Z,99744.06
2023-03-26T18:23:42.304Z,99723.44
2023-03-26T18:26:20.010Z,99726.88
2023-03-26T18:28:55.655Z,99721.66
2023-03-26T18:31:27.056Z,99747.38
2023-03-26T18:33:59.761Z,99734.47
2023-03-26T18:36:29.037Z,99715.59
2023-03-26T18:38:59.996Z,99758.47
2023-03-26T18:41:32.581Z,99742.97
2023-03-26T18:44:08.426Z,99761.94
2023-03-26T18:46:37.476Z,99685.78
2023-03-26T18:49:07.269Z,99743.16
2023-03-26T18:51:46.425Z,99738.03
2023-03-26T18:54:22.227Z,99738.03
2023-03-26T18:56:52.857Z,99762.19
2023-03-26T18:59:28.924Z,99780.16
2023-03-26T19:02:00.175Z,99732.81
2023-03-26T19:04:32.476Z,99749.16
2023-03-26T19:07:02.670Z,99763.63
2023-03-26T19:09:32.622Z,99727.69
2023-03-26T19:12:15.759Z,99754.25
2023-03-26T19:15:08.467Z,99733.75
2023-03-26T19:17:48.668Z,99730.38
2023-03-26T19:20:30.484Z,99761.94
2023-03-26T19:22:59.850Z,99731.03
2023-03-26T19:25:39.953Z,99743.03
2023-03-26T19:28:22.787Z,99737.88
2023-03-26T19:31:00.045Z,99767.22
2023-03-26T19:33:35.858Z,99768.88
2023-03-26T19:36:16.874Z,99725.16
2023-03-26T19:38:50.930Z,99766.25
2023-03-26T19:41:25.622Z,99733.84
2023-03-26T19:43:55.956Z,99767.47
2023-03-26T19:46:26.842Z,99757.91
2023-03-26T19:48:58.556Z,99757.13
2023-03-26T19:51:35.760Z,99758.00
2023-03-26T19:54:16.517Z,99749.44
2023-03-26T19:56:45.345Z,99700.94
2023-03-26T19:59:15.289Z,99762.56
2023-03-26T20:01:44.105Z,99763.47
2023-03-26T20:04:14.446Z,99753.19
2023-03-26T20:06:44.360Z,99778.88
2023-03-26T20:09:14.347Z,99785.00
2023-03-26T20:11:47.628Z,99755.72
2023-03-26T20:14:18.782Z,99771.31
2023-03-26T20:16:47.498Z,99758.50
2023-03-26T20:19:16.217Z,99690.81
2023-03-26T20:21:45.732Z,99777.28
2023-03-26T20:24:17.912Z,99764.28
2023-03-26T20:26:47.556Z,99732.56
2023-03-26T20:29:16.825Z,99770.53
2023-03-26T20:31:49.555Z,99757.81
2023-03-26T20:34:21.419Z,99761.22
2023-03-26T20:37:01.275Z,99775.97
2023-03-26T20:39:31.245Z,99770.91
2023-03-26T20:42:02.454Z,99769.03
2023-03-26T20:44:31.452Z,99759.69
2023-03-26T20:47:00.030Z,99710.03
2023-03-26T20:49:30.276Z,99765.69
2023-03-26T20:52:00.374Z,99772.47
2023-03-26T20:54:30.898Z,99748.44
2023-03-26T20:56:59.577Z,99713.38
2023-03-26T20:59:29.277Z,99776.81
2023-03-26T21:01:59.941Z,99737.31
2023-03-26T21:04:28.638Z,99766.72
2023-03-26T21:07:07.159Z,99705.84
2023-03-26T21:09:40.126Z,99775.31
2023-03-26T21:12:17.816Z,99773.66
2023-03-26T21:14:47.296Z,99765.81
2023-03-26T21:17:21.780Z,99720.56
2023-03-26T21:19:50.982Z,99767.63
2023-03-26T21:22:48.214Z,99794.28
2023-03-26T21:25:23.660Z,99793.53
2023-03-26T21:28:01.528Z,99805.56
2023-03-26T21:30:30.473Z,99793.41
2023-03-26T21:33:00.422Z,99715.53
2023-03-26T21:35:29.549Z,99786.59
2023-03-26T21:37:58.637Z,99794.41
2023-03-26T21:40:30.016Z,99804.06
2023-03-26T21:42:58.891Z,99813.63
2023-03-26T21:45:28.621Z,99773.25
2023-03-26T21:47:57.758Z,99795.56
2023-03-26T21:50:26.882Z,99806.66
2023-03-26T21:52:57.187Z,99735.69
2023-03-26T21:55:26.588Z,99736.59
2023-03-26T21:58:19.017Z,99800.13
2023-03-26T22:01:02.961Z,99820.63
2023-03-26T22:04:10.515Z,99799.38
2023-03-26T22:06:52.047Z,99807.97
2023-03-26T22:09:26.530Z,99836.31
2023-03-26T22:12:06.242Z,99815.75
2023-03-26T22:14:35.191Z,99821.88
2023-03-26T22:17:04.689Z,99845.06
2023-03-26T22:19:35.250Z,99845.09
2023-03-26T22:22:03.988Z,99803.84
2023-03-26T22:24:32.764Z,99791.69
2023-03-26T22:27:01.455Z,99762.69
2023-03-26T22:29:30.170Z,99816.63
2023-03-26T22:31:58.978Z,99756.75
2023-03-26T22:34:30.128Z,99848.50
2023-03-26T22:37:00.259Z,99854.53
2023-03-26T22:39:29.441Z,99825.34
2023-03-26T22:41:58.340Z,99841.72
2023-03-26T22:44:27.937Z,99853.72
2023-03-26T22:46:57.612Z,99836.66
2023-03-26T22:49:30.888Z,99841.72
2023-03-26T22:52:02.149Z,99817.66
2023-03-26T22:54:30.760Z,99831.41
2023-03-26T22:56:59.877Z,99782.56
2023-03-26T22:59:28.598Z,99839.25
2023-03-26T23:01:57.383Z,99840.97
2023-03-26T23:04:32.363Z,99809.22
2023-03-26T23:07:01.508Z,99853.88
2023-03-26T23:09:30.250Z,99839.47
2023-03-26T23:11:59.735Z,99853.38
2023-03-26T23:14:29.326Z,99853.44
2023-03-26T23:16:58.190Z,99844.75
2023-03-26T23:19:27.203Z,99847.41
2023-03-26T23:21:55.668Z,99866.97
2023-03-26T23:24:27.049Z,99870.47
2023-03-26T23:26:55.594Z,99867.94
2023-03-26T23:29:24.520Z,99864.50
2023-03-26T23:31:54.793Z,99837.25
2023-03-26T23:34:24.006Z,99861.28
2023-03-26T23:36:53.201Z,99876.88
2023-03-26T23:39:22.053Z,99881.34
2023-03-26T23:41:50.637Z,99880.31
2023-03-26T23:44:19.207Z,99879.72
2023-03-26T23:46:49.222Z,99915.72
2023-03-26T23:49:17.973Z,99818.56
2023-03-26T23:51:52.912Z,99907.81
2023-03-26T23:54:22.147Z,99898.38
2023-03-26T23:56:50.933Z,99896.78
2023-03-26T23:59:19.780Z,99907.06
